Time,TemperatureF,DewpointF,PressureIn,WindDirection,WindDirectionDegrees,WindSpeedMPH,WindSpeedGustMPH,Humidity,HourlyPrecipIn,Conditions,Clouds,dailyrainin,SoftwareType,DateUTC
2013-02-12 00:00:00,15.2,10.1,30.11,WSW,250,0.0,14.0,80,0.00,,,0.00,Wunderground v.1.13,2013-02-12 07:00:00,
2013-02-12 00:05:00,15.6,10.8,30.11,WSW,250,0.0,14.0,81,0.00,,,0.00,Wunderground v.1.13,2013-02-12 07:05:00,
2013-02-12 00:15:00,15.9,10.8,30.11,WSW,250,0.0,14.0,80,0.00,,,0.00,Wunderground v.1.13,2013-02-12 07:15:00,
2013-02-12 00:20:00,15.9,10.8,30.11,WSW,250,0.0,14.0,80,0.00,,,0.00,Wunderground v.1.13,2013-02-12 07:20:00,
2013-02-12 00:25:00,15.7,10.6,30.11,WSW,250,0.0,14.0,80,0.00,,,0.00,Wunderground v.1.13,2013-02-12 07:25:00,
2013-02-12 00:30:00,15.4,10.3,30.11,WSW,250,0.0,14.0,80,0.00,,,0.00,Wunderground v.1.13,2013-02-12 07:30:00,
2013-02-12 00:35:00,15.4,10.6,30.11,WSW,250,0.0,14.0,81,0.00,,,0.00,Wunderground v.1.13,2013-02-12 07:35:00,
2013-02-12 00:45:00,15.4,10.6,30.11,WSW,250,0.0,14.0,81,0.00,,,0.00,Wunderground v.1.13,2013-02-12 07:45:00,
2013-02-12 00:55:00,15.2,10.4,30.10,WSW,250,0.0,14.0,81,0.00,,,0.00,Wunderground v.1.13,2013-02-12 07:55:00,
2013-02-12 01:00:00,15.1,10.0,30.10,WSW,250,0.0,14.0,80,0.00,,,0.00,Wunderground v.1.13,2013-02-12 08:00:00,
2013-02-12 01:05:00,15.1,10.0,30.10,WSW,250,0.0,14.0,80,0.00,,,0.00,Wunderground v.1.13,2013-02-12 08:05:00,
2013-02-12 01:10:00,14.9,9.8,30.10,WSW,250,0.0,14.0,80,0.00,,,0.00,Wunderground v.1.13,2013-02-12 08:10:00,
2013-02-12 01:15:00,14.8,9.7,30.10,WSW,250,0.0,14.0,80,0.00,,,0.00,Wunderground v.1.13,2013-02-12 08:15:00,
2013-02-12 01:20:00,14.8,10.0,30.10,WSW,250,0.0,14.0,81,0.00,,,0.00,Wunderground v.1.13,2013-02-12 08:20:00,
2013-02-12 01:30:00,14.9,9.8,30.10,WSW,250,0.0,14.0,80,0.00,,,0.00,Wunderground v.1.13,2013-02-12 08:30:00,
2013-02-12 01:35:00,14.8,9.7,30.10,WSW,250,0.0,14.0,80,0.00,,,0.00,Wunderground v.1.13,2013-02-12 08:35:00,
2013-02-12 01:45:00,14.9,9.8,30.10,WSW,250,0.0,14.0,80,0.00,,,0.00,Wunderground v.1.13,2013-02-12 08:45:00,
2013-02-12 01:50:00,14.9,9.6,30.10,WSW,250,0.0,14.0,79,0.00,,,0.00,Wunderground v.1.13,2013-02-12 08:50:00,
2013-02-12 01:55:00,15.1,9.8,30.10,WSW,250,0.0,14.0,79,0.00,,,0.00,Wunderground v.1.13,2013-02-12 08:55:00,
2013-02-12 02:00:00,15.1,9.5,30.10,WSW,250,0.0,14.0,78,0.00,,,0.00,Wunderground v.1.13,2013-02-12 09:00:00,
2013-02-12 02:05:00,14.8,9.2,30.10,WSW,251,0.0,14.0,78,0.00,,,0.00,Wunderground v.1.13,2013-02-12 09:05:00,
2013-02-12 02:15:00,14.1,8.5,30.10,WSW,253,0.0,14.0,78,0.00,,,0.00,Wunderground v.1.13,2013-02-12 09:15:00,
2013-02-12 02:20:00,14.3,9.0,30.10,WSW,253,0.0,14.0,79,0.00,,,0.00,Wunderground v.1.13,2013-02-12 09:20:00,
2013-02-12 02:25:00,14.1,8.5,30.10,WSW,253,0.0,14.0,78,0.00,,,0.00,Wunderground v.1.13,2013-02-12 09:25:00,
2013-02-12 02:35:00,13.6,8.3,30.10,WSW,253,0.0,14.0,79,0.00,,,0.00,Wunderground v.1.13,2013-02-12 09:35:00,
2013-02-12 02:40:00,13.5,8.2,30.10,WSW,253,0.0,14.0,79,0.00,,,0.00,Wunderground v.1.13,2013-02-12 09:40:00,
2013-02-12 02:45:00,13.3,8.0,30.10,WSW,253,0.0,14.0,79,0.00,,,0.00,Wunderground v.1.13,2013-02-12 09:45:00,
2013-02-12 02:55:00,13.1,7.8,30.09,WSW,253,0.0,14.0,79,0.00,,,0.00,Wunderground v.1.13,2013-02-12 09:55:00,
2013-02-12 03:00:00,12.9,7.6,30.09,WSW,253,0.0,14.0,79,0.00,,,0.00,Wunderground v.1.13,2013-02-12 10:00:00,
2013-02-12 03:05:00,12.6,7.3,30.09,WSW,253,0.0,14.0,79,0.00,,,0.00,Wunderground v.1.13,2013-02-12 10:05:00,
2013-02-12 03:15:00,12.4,7.1,30.09,WSW,253,0.0,14.0,79,0.00,,,0.00,Wunderground v.1.13,2013-02-12 10:15:00,
2013-02-12 03:20:00,12.4,7.1,30.09,WSW,253,0.0,14.0,79,0.00,,,0.00,Wunderground v.1.13,2013-02-12 10:20:00,
2013-02-12 03:25:00,12.3,7.0,30.09,WSW,253,0.0,14.0,79,0.00,,,0.00,Wunderground v.1.13,2013-02-12 10:25:00,
2013-02-12 03:30:00,12.3,7.0,30.09,WSW,253,0.0,14.0,79,0.00,,,0.00,Wunderground v.1.13,2013-02-12 10:30:00,
2013-02-12 03:35:00,12.3,7.0,30.10,WSW,253,0.0,14.0,79,0.00,,,0.00,Wunderground v.1.13,2013-02-12 10:35:00,
2013-02-12 03:40:00,12.1,6.8,30.10,WSW,253,0.0,14.0,79,0.00,,,0.00,Wunderground v.1.13,2013-02-12 10:40:00,
2013-02-12 03:45:00,11.9,6.6,30.10,WSW,253,0.0,14.0,79,0.00,,,0.00,Wunderground v.1.13,2013-02-12 10:45:00,
2013-02-12 03:50:00,11.6,6.1,30.09,WSW,253,0.0,14.0,78,0.00,,,0.00,Wunderground v.1.13,2013-02-12 10:50:00,
2013-02-12 03:55:00,11.4,6.2,30.09,WSW,253,0.0,14.0,79,0.00,,,0.00,Wunderground v.1.13,2013-02-12 10:55:00,
2013-02-12 04:00:00,11.4,6.2,30.09,WSW,253,0.0,14.0,79,0.00,,,0.00,Wunderground v.1.13,2013-02-12 11:00:00,
2013-02-12 04:05:00,11.4,6.2,30.10,WSW,251,0.0,14.0,79,0.00,,,0.00,Wunderground v.1.13,2013-02-12 11:05:00,
2013-02-12 04:15:00,11.6,6.1,30.10,WSW,254,0.0,14.0,78,0.00,,,0.00,Wunderground v.1.13,2013-02-12 11:15:00,
2013-02-12 04:20:00,11.6,5.8,30.10,West,265,0.0,14.0,77,0.00,,,0.00,Wunderground v.1.13,2013-02-12 11:20:00,
2013-02-12 04:25:00,11.4,5.6,30.10,West,261,1.0,14.0,77,0.00,,,0.00,Wunderground v.1.13,2013-02-12 11:25:00,
2013-02-12 04:30:00,11.6,5.5,30.10,West,281,2.0,2.0,76,0.00,,,0.00,Wunderground v.1.13,2013-02-12 11:30:00,
2013-02-12 04:40:00,11.7,5.6,30.10,West,278,1.0,1.0,76,0.00,,,0.00,Wunderground v.1.13,2013-02-12 11:40:00,
2013-02-12 04:45:00,11.9,5.8,30.10,West,271,3.0,14.0,76,0.00,,,0.00,Wunderground v.1.13,2013-02-12 11:45:00,
2013-02-12 04:50:00,11.9,5.8,30.10,West,271,3.0,3.0,76,0.00,,,0.00,Wunderground v.1.13,2013-02-12 11:50:00,
2013-02-12 05:00:00,11.9,5.8,30.10,West,260,1.0,14.0,76,0.00,,,0.00,Wunderground v.1.13,2013-02-12 12:00:00,
2013-02-12 05:05:00,11.9,5.8,30.10,West,260,0.0,14.0,76,0.00,,,0.00,Wunderground v.1.13,2013-02-12 12:05:00,
2013-02-12 05:10:00,12.1,6.0,30.10,West,259,1.0,1.0,76,0.00,,,0.00,Wunderground v.1.13,2013-02-12 12:10:00,
2013-02-12 05:20:00,11.9,5.5,30.10,West,267,2.0,14.0,75,0.00,,,0.00,Wunderground v.1.13,2013-02-12 12:20:00,
2013-02-12 05:25:00,11.9,5.5,30.10,West,267,2.0,14.0,75,0.00,,,0.00,Wunderground v.1.13,2013-02-12 12:25:00,
2013-02-12 05:30:00,11.9,5.5,30.10,West,262,2.0,14.0,75,0.00,,,0.00,Wunderground v.1.13,2013-02-12 12:30:00,
2013-02-12 05:35:00,11.9,5.5,30.10,West,262,2.0,2.0,75,0.00,,,0.00,Wunderground v.1.13,2013-02-12 12:35:00,
2013-02-12 05:40:00,11.7,5.3,30.10,West,262,1.0,14.0,75,0.00,,,0.00,Wunderground v.1.13,2013-02-12 12:40:00,
2013-02-12 05:45:00,11.6,5.2,30.10,West,262,1.0,14.0,75,0.00,,,0.00,Wunderground v.1.13,2013-02-12 12:45:00,
2013-02-12 05:50:00,11.1,4.7,30.10,West,262,1.0,1.0,75,0.00,,,0.00,Wunderground v.1.13,2013-02-12 12:50:00,
2013-02-12 05:55:00,10.5,4.1,30.10,West,262,0.0,14.0,75,0.00,,,0.00,Wunderground v.1.13,2013-02-12 12:55:00,
2013-02-12 06:05:00,10.2,4.1,30.10,West,276,1.0,14.0,76,0.00,,,0.00,Wunderground v.1.13,2013-02-12 13:05:00,
2013-02-12 06:10:00,10.4,4.6,30.10,West,276,1.0,1.0,77,0.00,,,0.00,Wunderground v.1.13,2013-02-12 13:10:00,
2013-02-12 06:15:00,10.5,4.4,30.10,West,278,1.0,14.0,76,0.00,,,0.00,Wunderground v.1.13,2013-02-12 13:15:00,
2013-02-12 06:20:00,10.4,4.3,30.10,West,270,2.0,2.0,76,0.00,,,0.00,Wunderground v.1.13,2013-02-12 13:20:00,
2013-02-12 06:25:00,10.5,4.7,30.10,West,267,3.0,14.0,77,0.00,,,0.00,Wunderground v.1.13,2013-02-12 13:25:00,
2013-02-12 06:30:00,10.5,4.4,30.10,West,272,3.0,14.0,76,0.00,,,0.00,Wunderground v.1.13,2013-02-12 13:30:00,
2013-02-12 06:35:00,10.7,4.6,30.09,West,275,4.0,4.0,76,0.00,,,0.00,Wunderground v.1.13,2013-02-12 13:35:00,
2013-02-12 06:40:00,10.7,4.6,30.09,West,279,3.0,3.0,76,0.00,,,0.00,Wunderground v.1.13,2013-02-12 13:40:00,
2013-02-12 06:45:00,10.7,4.6,30.09,West,264,3.0,3.0,76,0.00,,,0.00,Wunderground v.1.13,2013-02-12 13:45:00,
2013-02-12 06:50:00,10.9,4.5,30.10,West,260,3.0,3.0,75,0.00,,,0.00,Wunderground v.1.13,2013-02-12 13:50:00,
2013-02-12 07:00:00,11.4,4.7,30.10,West,268,3.0,14.0,74,0.00,,,0.00,Wunderground v.1.13,2013-02-12 14:00:00,
2013-02-12 07:05:00,11.6,4.9,30.10,West,275,3.0,3.0,74,0.00,,,0.00,Wunderground v.1.13,2013-02-12 14:05:00,
2013-02-12 07:10:00,11.6,4.6,30.10,West,277,3.0,14.0,73,0.00,,,0.00,Wunderground v.1.13,2013-02-12 14:10:00,
2013-02-12 07:15:00,11.6,4.6,30.10,West,271,3.0,14.0,73,0.00,,,0.00,Wunderground v.1.13,2013-02-12 14:15:00,
2013-02-12 07:20:00,11.7,4.4,30.11,West,273,3.0,3.0,72,0.00,,,0.00,Wunderground v.1.13,2013-02-12 14:20:00,
2013-02-12 07:30:00,12.1,4.5,30.11,West,264,2.0,14.0,71,0.00,,,0.00,Wunderground v.1.13,2013-02-12 14:30:00,
2013-02-12 07:35:00,12.4,4.5,30.11,WSW,257,3.0,3.0,70,0.00,,,0.00,Wunderground v.1.13,2013-02-12 14:35:00,
2013-02-12 07:45:00,13.5,4.6,30.11,West,275,3.0,14.0,67,0.00,,,0.00,Wunderground v.1.13,2013-02-12 14:45:00,
2013-02-12 07:50:00,14.1,5.1,30.11,WSW,250,3.0,14.0,67,0.00,,,0.00,Wunderground v.1.13,2013-02-12 14:50:00,
2013-02-12 07:55:00,14.9,5.2,30.11,WSW,254,4.0,4.0,65,0.00,,,0.00,Wunderground v.1.13,2013-02-12 14:55:00,
2013-02-12 08:00:00,15.6,5.9,30.11,WSW,248,4.0,14.0,65,0.00,,,0.00,Wunderground v.1.13,2013-02-12 15:00:00,
2013-02-12 08:05:00,16.1,6.1,30.11,WSW,258,3.0,14.0,64,0.00,,,0.00,Wunderground v.1.13,2013-02-12 15:05:00,
2013-02-12 08:10:00,16.5,6.1,30.11,WNW,288,4.0,4.0,63,0.00,,,0.00,Wunderground v.1.13,2013-02-12 15:10:00,
2013-02-12 08:15:00,16.9,6.5,30.11,West,279,4.0,4.0,63,0.00,,,0.00,Wunderground v.1.13,2013-02-12 15:15:00,
2013-02-12 08:20:00,17.3,6.5,30.11,West,265,4.0,4.0,62,0.00,,,0.00,Wunderground v.1.13,2013-02-12 15:20:00,
2013-02-12 08:25:00,17.7,6.2,30.11,West,275,5.0,5.0,60,0.00,,,0.00,Wunderground v.1.13,2013-02-12 15:25:00,
2013-02-12 08:30:00,17.7,6.2,30.11,WNW,302,5.0,14.0,60,0.00,,,0.00,Wunderground v.1.13,2013-02-12 15:30:00,
2013-02-12 08:35:00,18.1,6.9,30.11,WNW,283,4.0,4.0,61,0.00,,,0.00,Wunderground v.1.13,2013-02-12 15:35:00,
2013-02-12 08:40:00,18.6,7.0,30.11,West,273,3.0,14.0,60,0.00,,,0.00,Wunderground v.1.13,2013-02-12 15:40:00,
2013-02-12 08:45:00,19.1,7.1,30.11,West,281,4.0,14.0,59,0.00,,,0.00,Wunderground v.1.13,2013-02-12 15:45:00,
2013-02-12 08:50:00,19.4,7.4,30.09,West,266,5.0,14.0,59,0.00,,,0.00,Wunderground v.1.13,2013-02-12 15:50:00,
2013-02-12 08:55:00,19.7,7.3,30.09,West,279,5.0,14.0,58,0.00,,,0.00,Wunderground v.1.13,2013-02-12 15:55:00,
2013-02-12 09:00:00,20.3,7.5,30.09,WSW,250,5.0,14.0,57,0.00,,,0.00,Wunderground v.1.13,2013-02-12 16:00:00,
2013-02-12 09:05:00,21.0,8.5,30.09,WSW,249,5.0,14.0,58,0.00,,,0.00,Wunderground v.1.13,2013-02-12 16:05:00,
2013-02-12 09:10:00,21.6,8.7,30.09,WSW,245,4.0,4.0,57,0.00,,,0.00,Wunderground v.1.13,2013-02-12 16:10:00,
2013-02-12 09:15:00,22.4,8.7,30.09,West,275,3.0,14.0,55,0.00,,,0.00,Wunderground v.1.13,2013-02-12 16:15:00,
2013-02-12 09:20:00,22.5,9.1,30.09,SW,234,4.0,14.0,56,0.00,,,0.00,Wunderground v.1.13,2013-02-12 16:20:00,
2013-02-12 09:25:00,21.8,8.9,30.09,West,270,6.0,6.0,57,0.00,,,0.00,Wunderground v.1.13,2013-02-12 16:25:00,
2013-02-12 09:30:00,22.2,9.3,30.09,WSW,241,7.0,7.0,57,0.00,,,0.00,Wunderground v.1.13,2013-02-12 16:30:00,
2013-02-12 09:35:00,23.0,10.0,30.09,SW,226,4.0,14.0,57,0.00,,,0.00,Wunderground v.1.13,2013-02-12 16:35:00,
2013-02-12 09:40:00,23.2,10.2,30.09,WSW,237,3.0,3.0,57,0.00,,,0.00,Wunderground v.1.13,2013-02-12 16:40:00,
2013-02-12 09:50:00,25.1,11.2,30.09,WSW,243,1.0,1.0,55,0.00,,,0.00,Wunderground v.1.13,2013-02-12 16:50:00,
2013-02-12 09:55:00,25.8,11.4,30.09,NW,311,1.0,1.0,54,0.00,,,0.00,Wunderground v.1.13,2013-02-12 16:55:00,
2013-02-12 10:00:00,27.2,11.9,30.09,West,272,2.0,14.0,52,0.00,,,0.00,Wunderground v.1.13,2013-02-12 17:00:00,
2013-02-12 10:05:00,28.2,12.4,30.09,West,261,3.0,14.0,51,0.00,,,0.00,Wunderground v.1.13,2013-02-12 17:05:00,
2013-02-12 10:15:00,29.3,12.5,30.09,WSW,252,5.0,14.0,49,0.00,,,0.00,Wunderground v.1.13,2013-02-12 17:15:00,
2013-02-12 10:20:00,29.7,12.4,30.09,NW,319,5.0,14.0,48,0.00,,,0.00,Wunderground v.1.13,2013-02-12 17:20:00,
2013-02-12 10:25:00,29.5,12.2,30.09,West,259,8.0,14.0,48,0.00,,,0.00,Wunderground v.1.13,2013-02-12 17:25:00,
2013-02-12 10:30:00,30.0,12.7,30.09,WNW,286,8.0,14.0,48,0.00,,,0.00,Wunderground v.1.13,2013-02-12 17:30:00,
2013-02-12 10:35:00,30.4,12.5,30.09,WNW,286,6.0,6.0,47,0.00,,,0.00,Wunderground v.1.13,2013-02-12 17:35:00,
2013-02-12 10:40:00,30.6,12.7,30.09,NNW,331,6.0,14.0,47,0.00,,,0.00,Wunderground v.1.13,2013-02-12 17:40:00,
2013-02-12 10:45:00,30.9,13.5,30.09,NW,315,7.0,7.0,48,0.00,,,0.00,Wunderground v.1.13,2013-02-12 17:45:00,
2013-02-12 10:55:00,31.2,12.8,30.08,NW,325,9.0,9.0,46,0.00,,,0.00,Wunderground v.1.13,2013-02-12 17:55:00,
2013-02-12 11:00:00,31.3,13.4,30.08,NW,310,8.0,14.0,47,0.00,,,0.00,Wunderground v.1.13,2013-02-12 18:00:00,
2013-02-12 11:05:00,31.5,13.6,30.09,NW,307,8.0,8.0,47,0.00,,,0.00,Wunderground v.1.13,2013-02-12 18:05:00,
2013-02-12 11:10:00,31.6,13.7,30.09,NW,317,8.0,14.0,47,0.00,,,0.00,Wunderground v.1.13,2013-02-12 18:10:00,
2013-02-12 11:20:00,32.1,14.1,30.08,WNW,284,8.0,14.0,47,0.00,,,0.00,Wunderground v.1.13,2013-02-12 18:20:00,
2013-02-12 11:25:00,32.2,14.2,30.08,West,266,8.0,8.0,47,0.00,,,0.00,Wunderground v.1.13,2013-02-12 18:25:00,
2013-02-12 11:35:00,32.9,14.8,30.08,NW,323,5.0,14.0,47,0.00,,,0.00,Wunderground v.1.13,2013-02-12 18:35:00,
2013-02-12 11:45:00,33.2,15.1,30.08,NW,309,5.0,14.0,47,0.00,,,0.00,Wunderground v.1.13,2013-02-12 18:45:00,
2013-02-12 11:50:00,33.7,16.1,30.07,WNW,297,5.0,5.0,48,0.00,,,0.00,Wunderground v.1.13,2013-02-12 18:50:00,
2013-02-12 11:55:00,34.0,15.4,30.07,NW,304,5.0,5.0,46,0.00,,,0.00,Wunderground v.1.13,2013-02-12 18:55:00,
2013-02-12 12:00:00,34.0,15.4,30.07,WNW,289,6.0,14.0,46,0.00,,,0.00,Wunderground v.1.13,2013-02-12 19:00:00,
2013-02-12 12:10:00,34.6,15.9,30.07,NW,318,5.0,5.0,46,0.00,,,0.00,Wunderground v.1.13,2013-02-12 19:10:00,
2013-02-12 12:15:00,35.2,16.0,30.07,NNW,328,5.0,14.0,45,0.00,,,0.00,Wunderground v.1.13,2013-02-12 19:15:00,
2013-02-12 12:20:00,35.2,15.4,30.07,North,349,5.0,14.0,44,0.00,,,0.00,Wunderground v.1.13,2013-02-12 19:20:00,
2013-02-12 12:25:00,35.3,15.5,30.07,NNW,333,7.0,14.0,44,0.00,,,0.00,Wunderground v.1.13,2013-02-12 19:25:00,
2013-02-12 12:30:00,35.3,16.0,30.07,NW,323,8.0,14.0,45,0.00,,,0.00,Wunderground v.1.13,2013-02-12 19:30:00,
2013-02-12 12:35:00,35.5,16.2,30.07,NNW,336,9.0,9.0,45,0.00,,,0.00,Wunderground v.1.13,2013-02-12 19:35:00,
2013-02-12 12:40:00,35.8,16.5,30.07,NW,326,8.0,17.0,45,0.00,,,0.00,Wunderground v.1.13,2013-02-12 19:40:00,
2013-02-12 12:45:00,36.0,16.7,30.07,NW,323,7.0,15.0,45,0.00,,,0.00,Wunderground v.1.13,2013-02-12 19:45:00,
2013-02-12 12:50:00,36.2,16.4,30.06,NW,304,7.0,7.0,44,0.00,,,0.00,Wunderground v.1.13,2013-02-12 19:50:00,
2013-02-12 12:55:00,36.5,16.6,30.06,NNW,344,5.0,14.0,44,0.00,,,0.00,Wunderground v.1.13,2013-02-12 19:55:00,
2013-02-12 13:00:00,36.6,16.2,30.06,NW,321,6.0,14.0,43,0.00,,,0.00,Wunderground v.1.13,2013-02-12 20:00:00,
2013-02-12 13:05:00,36.6,16.7,30.06,NW,325,8.0,8.0,44,0.00,,,0.00,Wunderground v.1.13,2013-02-12 20:05:00,
2013-02-12 13:10:00,37.2,17.3,30.06,NW,319,7.0,7.0,44,0.00,,,0.00,Wunderground v.1.13,2013-02-12 20:10:00,
2013-02-12 13:15:00,37.6,16.5,30.06,NNW,342,5.0,5.0,42,0.00,,,0.00,Wunderground v.1.13,2013-02-12 20:15:00,
2013-02-12 13:20:00,37.3,16.8,30.06,WNW,300,4.0,14.0,43,0.00,,,0.00,Wunderground v.1.13,2013-02-12 20:20:00,
2013-02-12 13:25:00,36.9,16.5,30.06,NNW,327,6.0,6.0,43,0.00,,,0.00,Wunderground v.1.13,2013-02-12 20:25:00,
2013-02-12 13:30:00,36.8,16.9,30.06,NW,326,6.0,6.0,44,0.00,,,0.00,Wunderground v.1.13,2013-02-12 20:30:00,
2013-02-12 13:35:00,36.9,17.0,30.05,WNW,300,6.0,14.0,44,0.00,,,0.00,Wunderground v.1.13,2013-02-12 20:35:00,
2013-02-12 13:45:00,37.3,17.4,30.05,NNW,336,5.0,5.0,44,0.00,,,0.00,Wunderground v.1.13,2013-02-12 20:45:00,
2013-02-12 13:50:00,37.8,17.8,30.04,North,360,5.0,14.0,44,0.00,,,0.00,Wunderground v.1.13,2013-02-12 20:50:00,
2013-02-12 13:55:00,38.0,17.5,30.04,NNW,329,5.0,5.0,43,0.00,,,0.00,Wunderground v.1.13,2013-02-12 20:55:00,
2013-02-12 14:00:00,38.2,17.6,30.04,North,351,5.0,5.0,43,0.00,,,0.00,Wunderground v.1.13,2013-02-12 21:00:00,
2013-02-12 14:05:00,38.5,17.9,30.04,NW,315,4.0,14.0,43,0.00,,,0.00,Wunderground v.1.13,2013-02-12 21:05:00,
2013-02-12 14:10:00,38.2,17.6,30.04,NNW,346,5.0,14.0,43,0.00,,,0.00,Wunderground v.1.13,2013-02-12 21:10:00,
2013-02-12 14:15:00,38.2,18.2,30.04,NNW,327,6.0,6.0,44,0.00,,,0.00,Wunderground v.1.13,2013-02-12 21:15:00,
2013-02-12 14:20:00,38.3,18.3,30.04,NW,323,4.0,4.0,44,0.00,,,0.00,Wunderground v.1.13,2013-02-12 21:20:00,
2013-02-12 14:25:00,38.3,18.3,30.04,NW,304,3.0,14.0,44,0.00,,,0.00,Wunderground v.1.13,2013-02-12 21:25:00,
2013-02-12 14:30:00,38.5,18.4,30.04,NW,312,2.0,2.0,44,0.00,,,0.00,Wunderground v.1.13,2013-02-12 21:30:00,
2013-02-12 14:40:00,38.8,18.7,30.04,NNW,328,4.0,14.0,44,0.00,,,0.00,Wunderground v.1.13,2013-02-12 21:40:00,
2013-02-12 14:45:00,38.9,18.8,30.04,NNW,333,3.0,14.0,44,0.00,,,0.00,Wunderground v.1.13,2013-02-12 21:45:00,
2013-02-12 14:50:00,38.8,18.2,30.04,NNW,336,5.0,5.0,43,0.00,,,0.00,Wunderground v.1.13,2013-02-12 21:50:00,
2013-02-12 15:00:00,39.3,19.2,30.04,NW,313,3.0,14.0,44,0.00,,,0.00,Wunderground v.1.13,2013-02-12 22:00:00,
2013-02-12 15:05:00,39.1,17.9,30.04,NW,311,4.0,4.0,42,0.00,,,0.00,Wunderground v.1.13,2013-02-12 22:05:00,
2013-02-12 15:10:00,39.2,18.5,30.04,NNW,331,6.0,6.0,43,0.00,,,0.00,Wunderground v.1.13,2013-02-12 22:10:00,
2013-02-12 15:15:00,39.2,18.5,30.04,NNW,339,5.0,5.0,43,0.00,,,0.00,Wunderground v.1.13,2013-02-12 22:15:00,
2013-02-12 15:20:00,39.2,19.1,30.04,NW,322,4.0,4.0,44,0.00,,,0.00,Wunderground v.1.13,2013-02-12 22:20:00,
2013-02-12 15:25:00,39.5,18.8,30.04,NW,321,4.0,14.0,43,0.00,,,0.00,Wunderground v.1.13,2013-02-12 22:25:00,
2013-02-12 15:35:00,39.3,19.2,30.04,NW,326,5.0,5.0,44,0.00,,,0.00,Wunderground v.1.13,2013-02-12 22:35:00,
2013-02-12 15:40:00,39.1,19.5,30.04,NNW,343,6.0,6.0,45,0.00,,,0.00,Wunderground v.1.13,2013-02-12 22:40:00,
2013-02-12 15:45:00,39.2,20.1,30.04,NNW,345,5.0,14.0,46,0.00,,,0.00,Wunderground v.1.13,2013-02-12 22:45:00,
2013-02-12 15:50:00,39.2,20.1,30.04,NNW,345,5.0,14.0,46,0.00,,,0.00,Wunderground v.1.13,2013-02-12 22:50:00,
2013-02-12 15:55:00,39.2,20.1,30.04,North,360,4.0,14.0,46,0.00,,,0.00,Wunderground v.1.13,2013-02-12 22:55:00,
2013-02-12 16:05:00,39.1,20.0,30.04,NNW,338,4.0,4.0,46,0.00,,,0.00,Wunderground v.1.13,2013-02-12 23:05:00,
2013-02-12 16:10:00,38.8,20.8,30.04,NNW,334,5.0,5.0,48,0.00,,,0.00,Wunderground v.1.13,2013-02-12 23:10:00,
2013-02-12 16:15:00,38.5,21.0,30.04,NNW,333,3.0,3.0,49,0.00,,,0.00,Wunderground v.1.13,2013-02-12 23:15:00,
2013-02-12 16:20:00,38.0,21.5,30.04,NNW,338,1.0,1.0,51,0.00,,,0.00,Wunderground v.1.13,2013-02-12 23:20:00,
2013-02-12 16:25:00,37.8,21.7,30.04,NNW,338,0.0,14.0,52,0.00,,,0.00,Wunderground v.1.13,2013-02-12 23:25:00,
2013-02-12 16:35:00,37.3,21.7,30.03,NNW,338,0.0,14.0,53,0.00,,,0.00,Wunderground v.1.13,2013-02-12 23:35:00,
2013-02-12 16:40:00,37.3,21.3,30.03,NNW,338,0.0,14.0,52,0.00,,,0.00,Wunderground v.1.13,2013-02-12 23:40:00,
2013-02-12 16:45:00,37.5,22.3,30.03,NNW,338,0.0,14.0,54,0.00,,,0.00,Wunderground v.1.13,2013-02-12 23:45:00,
2013-02-12 16:50:00,37.6,22.4,30.03,NNW,338,0.0,14.0,54,0.00,,,0.00,Wunderground v.1.13,2013-02-12 23:50:00,
2013-02-12 16:55:00,37.8,22.2,30.03,NNW,338,0.0,14.0,53,0.00,,,0.00,Wunderground v.1.13,2013-02-12 23:55:00,
2013-02-12 17:05:00,37.5,21.9,30.03,NNW,346,0.0,14.0,53,0.00,,,0.00,Wunderground v.1.13,2013-02-13 00:05:00,
2013-02-12 17:10:00,37.2,22.1,30.03,NNW,346,0.0,14.0,54,0.00,,,0.00,Wunderground v.1.13,2013-02-13 00:10:00,
2013-02-12 17:15:00,36.9,22.2,30.03,NNW,346,0.0,14.0,55,0.00,,,0.00,Wunderground v.1.13,2013-02-13 00:15:00,
2013-02-12 17:20:00,36.5,22.7,30.03,NNW,346,0.0,14.0,57,0.00,,,0.00,Wunderground v.1.13,2013-02-13 00:20:00,
2013-02-12 17:30:00,35.9,22.1,30.03,NW,326,0.0,14.0,57,0.00,,,0.00,Wunderground v.1.13,2013-02-13 00:30:00,
2013-02-12 17:35:00,36.0,22.2,30.03,NW,326,0.0,14.0,57,0.00,,,0.00,Wunderground v.1.13,2013-02-13 00:35:00,
2013-02-12 17:40:00,36.0,21.8,30.03,NW,326,0.0,14.0,56,0.00,,,0.00,Wunderground v.1.13,2013-02-13 00:40:00,
2013-02-12 17:50:00,35.8,22.5,30.03,NW,326,0.0,14.0,58,0.00,,,0.00,Wunderground v.1.13,2013-02-13 00:50:00,
2013-02-12 17:55:00,35.6,22.3,30.03,NW,326,0.0,14.0,58,0.00,,,0.00,Wunderground v.1.13,2013-02-13 00:55:00,
2013-02-12 18:00:00,35.3,22.0,30.03,NW,326,0.0,14.0,58,0.00,,,0.00,Wunderground v.1.13,2013-02-13 01:00:00,
2013-02-12 18:05:00,35.0,21.7,30.03,NW,326,0.0,14.0,58,0.00,,,0.00,Wunderground v.1.13,2013-02-13 01:05:00,
2013-02-12 18:15:00,34.4,21.5,30.03,NW,326,0.0,14.0,59,0.00,,,0.00,Wunderground v.1.13,2013-02-13 01:15:00,
2013-02-12 18:25:00,33.7,21.3,30.03,NW,326,0.0,14.0,60,0.00,,,0.00,Wunderground v.1.13,2013-02-13 01:25:00,
2013-02-12 18:30:00,33.5,21.1,30.03,NW,326,0.0,14.0,60,0.00,,,0.00,Wunderground v.1.13,2013-02-13 01:30:00,
2013-02-12 18:35:00,33.5,20.7,30.03,NW,326,0.0,14.0,59,0.00,,,0.00,Wunderground v.1.13,2013-02-13 01:35:00,
2013-02-12 18:45:00,32.2,20.2,30.03,NW,326,0.0,14.0,61,0.00,,,0.00,Wunderground v.1.13,2013-02-13 01:45:00,
2013-02-12 18:50:00,31.6,20.1,30.03,NW,326,0.0,14.0,62,0.00,,,0.00,Wunderground v.1.13,2013-02-13 01:50:00,
2013-02-12 18:55:00,31.2,20.4,30.03,NW,326,0.0,14.0,64,0.00,,,0.00,Wunderground v.1.13,2013-02-13 01:55:00,
2013-02-12 19:00:00,30.9,20.1,30.03,NW,326,0.0,14.0,64,0.00,,,0.00,Wunderground v.1.13,2013-02-13 02:00:00,
2013-02-12 19:05:00,30.6,20.2,30.03,NW,326,0.0,14.0,65,0.00,,,0.00,Wunderground v.1.13,2013-02-13 02:05:00,
2013-02-12 19:10:00,30.6,20.2,30.03,NW,316,0.0,14.0,65,0.00,,,0.00,Wunderground v.1.13,2013-02-13 02:10:00,
2013-02-12 19:20:00,30.1,20.1,30.03,WNW,298,0.0,14.0,66,0.00,,,0.00,Wunderground v.1.13,2013-02-13 02:20:00,
2013-02-12 19:25:00,29.8,20.2,30.03,WNW,298,0.0,14.0,67,0.00,,,0.00,Wunderground v.1.13,2013-02-13 02:25:00,
2013-02-12 19:30:00,29.5,20.2,30.03,WNW,298,0.0,14.0,68,0.00,,,0.00,Wunderground v.1.13,2013-02-13 02:30:00,
2013-02-12 19:35:00,29.3,20.0,30.03,WNW,298,0.0,14.0,68,0.00,,,0.00,Wunderground v.1.13,2013-02-13 02:35:00,
2013-02-12 19:40:00,29.1,19.8,30.03,WNW,298,0.0,14.0,68,0.00,,,0.00,Wunderground v.1.13,2013-02-13 02:40:00,
2013-02-12 19:45:00,29.1,19.5,30.03,WNW,298,0.0,14.0,67,0.00,,,0.00,Wunderground v.1.13,2013-02-13 02:45:00,
2013-02-12 19:55:00,28.8,19.2,30.03,WNW,298,0.0,14.0,67,0.00,,,0.00,Wunderground v.1.13,2013-02-13 02:55:00,
2013-02-12 20:00:00,28.5,19.3,30.03,WNW,298,0.0,14.0,68,0.00,,,0.00,Wunderground v.1.13,2013-02-13 03:00:00,
2013-02-12 20:05:00,28.4,19.2,30.02,WNW,298,0.0,14.0,68,0.00,,,0.00,Wunderground v.1.13,2013-02-13 03:05:00,
2013-02-12 20:15:00,27.6,18.8,30.02,WNW,298,0.0,14.0,69,0.00,,,0.00,Wunderground v.1.13,2013-02-13 03:15:00,
2013-02-12 20:25:00,26.9,18.4,30.02,WNW,298,0.0,14.0,70,0.00,,,0.00,Wunderground v.1.13,2013-02-13 03:25:00,
2013-02-12 20:35:00,26.4,18.3,30.03,WNW,293,0.0,14.0,71,0.00,,,0.00,Wunderground v.1.13,2013-02-13 03:35:00,
2013-02-12 20:40:00,26.1,18.0,30.03,WNW,293,0.0,14.0,71,0.00,,,0.00,Wunderground v.1.13,2013-02-13 03:40:00,
2013-02-12 20:45:00,25.7,17.6,30.03,WSW,248,0.0,14.0,71,0.00,,,0.00,Wunderground v.1.13,2013-02-13 03:45:00,
2013-02-12 20:50:00,25.3,17.5,30.04,WSW,245,1.0,1.0,72,0.00,,,0.00,Wunderground v.1.13,2013-02-13 03:50:00,
2013-02-12 20:55:00,25.3,17.2,30.04,WSW,245,1.0,1.0,71,0.00,,,0.00,Wunderground v.1.13,2013-02-13 03:55:00,
2013-02-12 21:05:00,25.1,17.0,30.04,WSW,245,0.0,14.0,71,0.00,,,0.00,Wunderground v.1.13,2013-02-13 04:05:00,
2013-02-12 21:10:00,25.3,16.9,30.04,WSW,245,0.0,14.0,70,0.00,,,0.00,Wunderground v.1.13,2013-02-13 04:10:00,
2013-02-12 21:15:00,25.8,17.0,30.04,WSW,249,0.0,14.0,69,0.00,,,0.00,Wunderground v.1.13,2013-02-13 04:15:00,
2013-02-12 21:20:00,26.3,16.8,30.04,WSW,249,0.0,14.0,67,0.00,,,0.00,Wunderground v.1.13,2013-02-13 04:20:00,
2013-02-12 21:25:00,26.9,17.0,30.04,WSW,249,0.0,14.0,66,0.00,,,0.00,Wunderground v.1.13,2013-02-13 04:25:00,
2013-02-12 21:30:00,27.2,16.6,30.04,WSW,250,0.0,14.0,64,0.00,,,0.00,Wunderground v.1.13,2013-02-13 04:30:00,
2013-02-12 21:35:00,27.3,16.4,30.03,WSW,250,0.0,14.0,63,0.00,,,0.00,Wunderground v.1.13,2013-02-13 04:35:00,
2013-02-12 21:40:00,27.3,16.4,30.03,WSW,250,0.0,14.0,63,0.00,,,0.00,Wunderground v.1.13,2013-02-13 04:40:00,
2013-02-12 21:50:00,27.5,16.2,30.03,WSW,250,0.0,14.0,62,0.00,,,0.00,Wunderground v.1.13,2013-02-13 04:50:00,
2013-02-12 21:55:00,27.6,16.3,30.03,WSW,250,0.0,14.0,62,0.00,,,0.00,Wunderground v.1.13,2013-02-13 04:55:00,
2013-02-12 22:00:00,27.8,16.1,30.03,WSW,250,0.0,14.0,61,0.00,,,0.00,Wunderground v.1.13,2013-02-13 05:00:00,
2013-02-12 22:05:00,27.8,16.1,30.03,WSW,250,0.0,14.0,61,0.00,,,0.00,Wunderground v.1.13,2013-02-13 05:05:00,
2013-02-12 22:10:00,27.8,16.1,30.03,WSW,250,0.0,14.0,61,0.00,,,0.00,Wunderground v.1.13,2013-02-13 05:10:00,
2013-02-12 22:15:00,27.8,16.1,30.03,WSW,251,0.0,14.0,61,0.00,,,0.00,Wunderground v.1.13,2013-02-13 05:15:00,
2013-02-12 22:20:00,27.6,15.9,30.02,WSW,251,0.0,14.0,61,0.00,,,0.00,Wunderground v.1.13,2013-02-13 05:20:00,
2013-02-12 22:25:00,27.3,16.0,30.02,WSW,251,0.0,14.0,62,0.00,,,0.00,Wunderground v.1.13,2013-02-13 05:25:00,
2013-02-12 22:30:00,27.3,16.0,30.02,WSW,251,0.0,14.0,62,0.00,,,0.00,Wunderground v.1.13,2013-02-13 05:30:00,
2013-02-12 22:40:00,27.0,15.7,30.02,WSW,252,0.0,14.0,62,0.00,,,0.00,Wunderground v.1.13,2013-02-13 05:40:00,
2013-02-12 22:50:00,26.9,16.0,30.02,WSW,252,0.0,14.0,63,0.00,,,0.00,Wunderground v.1.13,2013-02-13 05:50:00,
2013-02-12 23:00:00,27.2,15.9,30.02,WSW,252,0.0,14.0,62,0.00,,,0.00,Wunderground v.1.13,2013-02-13 06:00:00,
2013-02-12 23:05:00,26.9,16.0,30.01,WSW,252,0.0,14.0,63,0.00,,,0.00,Wunderground v.1.13,2013-02-13 06:05:00,
2013-02-12 23:10:00,26.9,16.0,30.01,WSW,253,0.0,14.0,63,0.00,,,0.00,Wunderground v.1.13,2013-02-13 06:10:00,
2013-02-12 23:15:00,27.3,16.0,30.01,WSW,238,1.0,14.0,62,0.00,,,0.00,Wunderground v.1.13,2013-02-13 06:15:00,
2013-02-12 23:20:00,27.5,16.2,30.02,WSW,242,1.0,1.0,62,0.00,,,0.00,Wunderground v.1.13,2013-02-13 06:20:00,
2013-02-12 23:25:00,27.6,16.3,30.02,WSW,250,1.0,1.0,62,0.00,,,0.00,Wunderground v.1.13,2013-02-13 06:25:00,
2013-02-12 23:30:00,27.5,15.8,30.02,West,261,1.0,1.0,61,0.00,,,0.00,Wunderground v.1.13,2013-02-13 06:30:00,
2013-02-12 23:40:00,27.8,15.7,30.02,West,269,1.0,14.0,60,0.00,,,0.00,Wunderground v.1.13,2013-02-13 06:40:00,
2013-02-12 23:45:00,27.6,15.5,30.02,WSW,238,1.0,1.0,60,0.00,,,0.00,Wunderground v.1.13,2013-02-13 06:45:00,
2013-02-12 23:50:00,27.3,15.6,30.02,WSW,238,1.0,1.0,61,0.00,,,0.00,Wunderground v.1.13,2013-02-13 06:50:00,
2013-02-12 23:55:00,26.9,15.6,30.02,WSW,238,0.0,14.0,62,0.00,,,0.00,Wunderground v.1.13,2013-02-13 06:55:00,